Time;durP1;ratioP1;P1;durP2;ratioP2;P2;SDS_P1;SDS_P2;PMS_P1;PMS_P2;Temp;Humidity;BMP_temperature;BMP_pressure;BME280_temperature;BME280_humidity;BME280_pressure;Samples;Min_cycle;Max_cycle;Signal;HPM_P1;HPM_P2
2022/08/16 00:00:11;;;;;;;16.23;14.27;;;21.00;99.90;;;;;;5133067;27;20859;-67
2022/08/16 00:02:37;;;;;;;16.38;13.98;;;21.00;99.90;;;;;;5115383;27;20142;-69
2022/08/16 00:05:05;;;;;;;16.83;14.93;;;21.00;99.90;;;;;;5114910;27;20050;-68
2022/08/16 00:07:30;;;;;;;17.70;15.65;;;20.90;99.90;;;;;;5098298;27;20144;-68
2022/08/16 00:09:58;;;;;;;18.15;15.85;;;21.00;99.90;;;;;;5107300;27;20196;-68
2022/08/16 00:12:24;;;;;;;18.42;16.63;;;20.90;99.90;;;;;;5115219;27;20091;-68
2022/08/16 00:14:50;;;;;;;18.00;16.13;;;20.90;99.90;;;;;;5114563;27;20338;-67
2022/08/16 00:17:15;;;;;;;20.02;16.80;;;20.90;99.90;;;;;;5097226;27;20122;-68
2022/08/16 00:19:41;;;;;;;19.27;17.35;;;20.80;99.90;;;;;;5113824;27;20136;-67
2022/08/16 00:22:06;;;;;;;21.42;19.27;;;20.80;99.90;;;;;;5095752;27;20054;-67
2022/08/16 00:24:33;;;;;;;22.75;20.23;;;20.70;99.90;;;;;;5113909;27;20038;-67
2022/08/16 00:27:00;;;;;;;24.13;21.52;;;20.70;99.90;;;;;;5096756;27;20043;-67
2022/08/16 00:29:25;;;;;;;23.25;21.02;;;20.70;99.90;;;;;;5113103;27;20704;-67
2022/08/16 00:31:52;;;;;;;22.52;20.30;;;20.70;99.90;;;;;;5114545;27;20225;-67
2022/08/16 00:34:19;;;;;;;23.25;21.05;;;20.60;99.90;;;;;;5114044;27;20206;-68
2022/08/16 00:36:45;;;;;;;23.08;20.52;;;20.60;99.90;;;;;;5114027;27;20301;-68
2022/08/16 00:39:12;;;;;;;23.17;20.98;;;20.60;99.90;;;;;;5113890;27;20458;-68
2022/08/16 00:41:38;;;;;;;25.98;23.27;;;20.60;99.90;;;;;;5113608;27;20132;-67
2022/08/16 00:44:09;;;;;;;24.73;22.45;;;20.50;99.90;;;;;;5113379;27;20055;-68
2022/08/16 00:46:56;;;;;;;23.35;20.45;;;20.50;99.90;;;;;;5080696;27;20488;-68
2022/08/16 00:49:23;;;;;;;23.65;21.15;;;20.50;99.90;;;;;;5088891;27;20038;-67
2022/08/16 00:51:51;;;;;;;23.90;21.50;;;20.50;99.90;;;;;;5112059;27;20181;-68
2022/08/16 00:54:20;;;;;;;24.48;22.17;;;20.50;99.90;;;;;;5095752;27;20124;-67
2022/08/16 00:56:49;;;;;;;25.05;22.52;;;20.40;99.90;;;;;;5100920;27;20242;-68
2022/08/16 00:59:17;;;;;;;24.42;22.20;;;20.50;99.90;;;;;;5112821;27;20034;-67
2022/08/16 01:01:44;;;;;;;28.05;24.67;;;20.40;99.90;;;;;;5096023;27;20522;-67
2022/08/16 01:04:12;;;;;;;25.05;22.45;;;20.40;99.90;;;;;;5096941;27;20075;-68
2022/08/16 01:06:38;;;;;;;24.23;21.88;;;20.40;99.90;;;;;;5112631;27;20090;-68
2022/08/16 01:09:05;;;;;;;23.40;21.23;;;20.40;99.90;;;;;;5114972;27;20755;-68
2022/08/16 01:11:34;;;;;;;23.25;20.95;;;20.50;99.90;;;;;;5096800;27;20043;-68
2022/08/16 01:14:32;;;;;;;24.02;21.73;;;20.40;99.90;;;;;;5115735;27;20103;-68
2022/08/16 01:17:00;;;;;;;24.30;21.98;;;20.40;99.90;;;;;;5074071;27;20046;-68
2022/08/16 01:19:30;;;;;;;25.30;22.60;;;20.40;99.90;;;;;;5114191;27;20050;-68
2022/08/16 01:22:18;;;;;;;25.73;23.05;;;20.40;99.90;;;;;;5114747;27;20039;-68
2022/08/16 01:24:57;;;;;;;23.88;21.55;;;20.50;99.90;;;;;;5081501;27;20439;-68
2022/08/16 01:27:31;;;;;;;25.65;22.85;;;20.40;99.90;;;;;;5113300;27;20073;-68
2022/08/16 01:30:09;;;;;;;25.63;23.00;;;20.40;99.90;;;;;;5130353;27;20085;-68
2022/08/16 01:32:41;;;;;;;25.23;22.88;;;20.40;99.90;;;;;;5096580;27;20162;-68
2022/08/16 01:35:25;;;;;;;25.80;23.13;;;20.30;99.90;;;;;;5094930;27;20030;-68
2022/08/16 01:37:53;;;;;;;26.70;24.17;;;20.40;99.90;;;;;;5112420;27;20035;-68
2022/08/16 01:40:27;;;;;;;26.73;23.75;;;20.40;99.90;;;;;;5086795;27;20828;-68
2022/08/16 01:42:54;;;;;;;26.98;24.17;;;20.40;99.90;;;;;;5113967;27;20053;-68
2022/08/16 01:45:20;;;;;;;25.80;23.30;;;20.30;99.90;;;;;;5115706;27;20046;-68
2022/08/16 01:47:49;;;;;;;27.05;24.33;;;20.40;99.90;;;;;;5104214;27;20034;-68
2022/08/16 01:50:15;;;;;;;27.83;25.05;;;20.30;99.90;;;;;;5112134;27;20085;-68
2022/08/16 01:52:42;;;;;;;26.92;24.25;;;20.30;99.90;;;;;;5117299;27;21018;-68
2022/08/16 01:55:08;;;;;;;28.67;25.58;;;20.30;99.90;;;;;;5086907;27;20550;-67
2022/08/16 01:57:34;;;;;;;29.02;26.00;;;20.30;99.90;;;;;;5095069;27;20146;-68
2022/08/16 02:00:00;;;;;;;28.60;25.75;;;20.30;99.90;;;;;;5095398;27;20034;-68
2022/08/16 02:02:27;;;;;;;28.02;25.13;;;20.30;99.90;;;;;;5093863;27;20492;-68
2022/08/16 02:04:53;;;;;;;28.77;25.80;;;20.30;99.90;;;;;;5092355;27;20362;-68
2022/08/16 02:07:19;;;;;;;27.70;24.95;;;20.30;99.90;;;;;;5094061;27;20041;-66
2022/08/16 02:09:47;;;;;;;29.77;26.77;;;20.30;99.90;;;;;;5094259;27;20115;-67
2022/08/16 02:12:15;;;;;;;30.20;27.20;;;20.30;99.90;;;;;;5112601;27;20763;-67
2022/08/16 02:14:42;;;;;;;30.88;27.92;;;20.30;99.90;;;;;;5112312;27;20197;-67
2022/08/16 02:17:10;;;;;;;31.45;28.48;;;20.30;99.90;;;;;;5110887;27;20346;-67
2022/08/16 02:19:39;;;;;;;30.50;26.95;;;20.20;99.90;;;;;;5094107;27;20042;-67
2022/08/16 02:25:47;;;;;;;33.05;29.90;;;20.20;99.90;;;;;;5132442;27;20197;-67
2022/08/16 02:28:41;;;;;;;33.30;30.25;;;20.10;99.90;;;;;;5112451;27;20061;-67
2022/08/16 02:31:11;;;;;;;33.95;30.45;;;20.20;99.90;;;;;;5098057;27;20194;-67
2022/08/16 02:33:37;;;;;;;31.52;28.42;;;20.10;99.90;;;;;;5113731;27;20047;-67
2022/08/16 02:36:04;;;;;;;33.22;29.90;;;20.00;99.90;;;;;;5112718;27;20034;-68
2022/08/16 02:38:29;;;;;;;31.90;28.85;;;20.00;99.90;;;;;;5103467;27;20427;-68
2022/08/16 02:40:56;;;;;;;32.08;29.13;;;20.00;99.90;;;;;;5078429;27;20371;-67
2022/08/16 02:43:29;;;;;;;32.72;29.48;;;20.00;99.90;;;;;;5112453;27;20416;-68
2022/08/16 02:45:56;;;;;;;33.38;30.10;;;20.00;99.90;;;;;;5095636;27;20038;-68
2022/08/16 02:48:22;;;;;;;33.90;30.50;;;20.00;99.90;;;;;;5094529;27;20035;-68
2022/08/16 02:50:48;;;;;;;34.38;30.98;;;19.90;99.90;;;;;;5131010;27;20043;-68
2022/08/16 02:53:14;;;;;;;31.88;28.85;;;19.90;99.90;;;;;;5113332;27;20378;-68
2022/08/16 02:55:40;;;;;;;34.33;30.67;;;19.70;99.90;;;;;;5112780;27;20211;-67
2022/08/16 02:58:05;;;;;;;36.58;32.83;;;19.70;99.90;;;;;;5112447;27;20034;-68
2022/08/16 03:00:31;;;;;;;33.63;30.10;;;19.70;99.90;;;;;;5113048;27;20317;-68
2022/08/16 03:02:57;;;;;;;35.03;31.55;;;19.70;99.90;;;;;;5109089;28;20078;-68
2022/08/16 03:05:24;;;;;;;34.20;30.60;;;19.70;99.90;;;;;;5108446;28;20469;-67
2022/08/16 03:07:49;;;;;;;35.47;31.83;;;19.70;99.90;;;;;;5109230;28;20482;-68
2022/08/16 03:10:16;;;;;;;35.22;31.10;;;19.60;99.90;;;;;;5109686;28;20043;-68
2022/08/16 03:12:45;;;;;;;34.35;31.15;;;19.70;99.90;;;;;;5089223;28;20213;-67
2022/08/16 03:15:13;;;;;;;35.28;31.83;;;19.80;99.90;;;;;;5111807;27;20047;-68
2022/08/16 03:17:39;;;;;;;35.88;32.35;;;19.70;99.90;;;;;;5113226;27;20043;-68
2022/08/16 03:20:07;;;;;;;36.80;32.97;;;19.80;99.90;;;;;;5112000;27;20039;-68
2022/08/16 03:22:33;;;;;;;34.95;31.58;;;19.80;99.90;;;;;;5112954;27;20269;-67
2022/08/16 03:25:01;;;;;;;36.58;32.78;;;19.80;99.90;;;;;;5103259;27;20244;-68
2022/08/16 03:27:28;;;;;;;35.28;31.83;;;19.90;99.90;;;;;;5114538;27;20043;-68
2022/08/16 03:29:54;;;;;;;36.53;32.72;;;19.90;99.90;;;;;;5113612;27;20080;-67
2022/08/16 03:32:20;;;;;;;37.05;33.35;;;19.80;99.90;;;;;;5112916;27;20824;-67
2022/08/16 03:34:46;;;;;;;36.42;32.67;;;20.00;99.90;;;;;;5110736;27;20035;-68
2022/08/16 03:37:12;;;;;;;37.08;33.10;;;19.80;99.90;;;;;;5114275;27;20050;-68
2022/08/16 03:39:38;;;;;;;34.97;31.60;;;19.90;99.90;;;;;;5114012;27;20047;-68
2022/08/16 03:42:04;;;;;;;36.30;32.70;;;19.80;99.90;;;;;;5094724;27;20053;-68
2022/08/16 03:44:31;;;;;;;34.75;31.15;;;19.90;99.90;;;;;;5095828;27;20043;-67
2022/08/16 03:46:57;;;;;;;35.60;32.10;;;19.90;99.90;;;;;;5112558;27;20039;-68
2022/08/16 03:49:23;;;;;;;34.47;31.08;;;19.80;99.90;;;;;;5112287;27;20050;-68
2022/08/16 03:51:49;;;;;;;33.10;29.77;;;19.80;99.90;;;;;;5112834;27;20039;-67
2022/08/16 03:54:14;;;;;;;33.95;30.55;;;19.80;99.90;;;;;;5111201;27;20047;-68
2022/08/16 03:56:41;;;;;;;34.25;30.75;;;19.80;99.90;;;;;;5113944;27;20068;-67
2022/08/16 03:59:07;;;;;;;35.30;31.77;;;19.80;99.90;;;;;;5095373;27;20038;-67
2022/08/16 04:01:32;;;;;;;34.10;30.80;;;19.70;99.90;;;;;;5112896;27;20066;-66
2022/08/16 04:03:58;;;;;;;33.28;29.85;;;19.70;99.90;;;;;;5078666;27;20039;-67
2022/08/16 04:06:24;;;;;;;31.85;28.77;;;19.80;99.90;;;;;;5112435;27;20561;-67
2022/08/16 04:08:49;;;;;;;33.45;30.02;;;19.70;99.90;;;;;;5095344;27;20465;-67
2022/08/16 04:11:15;;;;;;;31.55;28.50;;;19.70;99.90;;;;;;5113270;27;20116;-67
2022/08/16 04:13:41;;;;;;;32.28;28.33;;;19.70;99.90;;;;;;5095630;27;20039;-67
2022/08/16 04:16:08;;;;;;;32.20;28.45;;;19.70;99.90;;;;;;5112102;27;20184;-67
2022/08/16 04:18:35;;;;;;;29.95;26.88;;;19.70;99.90;;;;;;5094372;27;20039;-67
2022/08/16 04:21:01;;;;;;;31.15;28.00;;;19.60;99.90;;;;;;5078620;27;20043;-68
2022/08/16 04:23:27;;;;;;;29.30;26.27;;;19.50;99.90;;;;;;5112105;27;20053;-67
2022/08/16 04:25:52;;;;;;;30.23;27.27;;;19.60;99.90;;;;;;5112689;27;20076;-67
2022/08/16 04:28:18;;;;;;;29.05;26.27;;;19.60;99.90;;;;;;5112143;27;20495;-66
2022/08/16 04:30:44;;;;;;;29.63;26.75;;;19.60;99.90;;;;;;5113892;27;20385;-67
2022/08/16 04:33:09;;;;;;;30.00;27.02;;;19.60;99.90;;;;;;5112001;27;20690;-67
2022/08/16 04:35:35;;;;;;;32.10;28.15;;;19.60;99.90;;;;;;5094803;27;20035;-67
2022/08/16 04:38:02;;;;;;;30.55;26.27;;;19.50;99.90;;;;;;5112032;27;20050;-67
2022/08/16 04:40:28;;;;;;;28.20;25.25;;;19.60;99.90;;;;;;5097556;27;20050;-67
2022/08/16 04:42:54;;;;;;;29.77;26.67;;;19.50;99.90;;;;;;5109020;27;20660;-68
2022/08/16 04:45:20;;;;;;;30.88;26.15;;;19.50;99.90;;;;;;5110704;27;20074;-67
2022/08/16 04:47:46;;;;;;;29.45;26.23;;;19.50;99.90;;;;;;5112079;27;20150;-67
2022/08/16 04:50:20;;;;;;;28.70;25.83;;;19.40;99.90;;;;;;5093950;27;20571;-67
2022/08/16 04:52:47;;;;;;;27.48;24.50;;;19.40;99.90;;;;;;5109935;27;20046;-67
2022/08/16 04:55:20;;;;;;;28.50;25.55;;;19.40;99.90;;;;;;5111847;27;20482;-67
2022/08/16 04:57:48;;;;;;;29.48;25.08;;;19.40;99.90;;;;;;5111995;27;20046;-66
2022/08/16 05:00:19;;;;;;;29.02;25.20;;;19.50;99.90;;;;;;5093479;27;20144;-67
2022/08/16 05:02:47;;;;;;;27.10;24.25;;;19.40;99.90;;;;;;5111135;27;20373;-67
2022/08/16 05:05:13;;;;;;;27.83;24.17;;;19.40;99.90;;;;;;5110951;27;20119;-67
2022/08/16 05:07:39;;;;;;;27.80;25.00;;;19.40;99.90;;;;;;5094387;27;20047;-67
2022/08/16 05:10:07;;;;;;;27.27;24.25;;;19.40;99.90;;;;;;5094467;27;20046;-67
2022/08/16 05:12:34;;;;;;;26.25;23.52;;;19.40;99.90;;;;;;5094119;27;20529;-67
2022/08/16 05:15:00;;;;;;;25.45;22.83;;;19.50;99.90;;;;;;5109649;27;20145;-67
2022/08/16 05:17:26;;;;;;;24.98;22.40;;;19.50;99.90;;;;;;5110297;27;20070;-67
2022/08/16 05:19:52;;;;;;;25.10;22.58;;;19.50;99.90;;;;;;5110548;27;20144;-67
2022/08/16 05:22:18;;;;;;;24.83;22.27;;;19.60;99.90;;;;;;5110297;27;21168;-67
2022/08/16 05:24:44;;;;;;;24.77;22.25;;;19.50;99.90;;;;;;5108670;27;20039;-68
2022/08/16 05:27:10;;;;;;;24.95;22.42;;;19.60;99.90;;;;;;5108878;27;20097;-67
2022/08/16 05:29:36;;;;;;;24.38;21.90;;;19.70;99.90;;;;;;5109477;27;20311;-67
2022/08/16 05:32:02;;;;;;;25.50;23.15;;;19.70;99.90;;;;;;5110119;27;20039;-67
2022/08/16 05:34:28;;;;;;;25.45;22.55;;;19.80;99.90;;;;;;5080159;27;20058;-67
2022/08/16 05:36:56;;;;;;;24.92;22.45;;;19.90;99.90;;;;;;5110185;27;20035;-67
2022/08/16 05:39:23;;;;;;;25.00;22.45;;;20.00;99.90;;;;;;5098917;27;20043;-67
2022/08/16 05:41:50;;;;;;;25.55;22.85;;;20.20;99.90;;;;;;5110180;27;20118;-67
2022/08/16 05:44:16;;;;;;;24.42;21.83;;;20.40;99.90;;;;;;5109674;27;20043;-67
2022/08/16 05:46:44;;;;;;;25.05;22.50;;;20.30;99.90;;;;;;5092922;27;20174;-67
2022/08/16 05:49:15;;;;;;;24.98;22.30;;;20.30;99.90;;;;;;5108766;27;20070;-66
2022/08/16 05:51:45;;;;;;;29.65;23.85;;;20.20;99.90;;;;;;5093209;27;20437;-66
2022/08/16 05:54:16;;;;;;;28.92;24.58;;;20.20;99.90;;;;;;5112042;27;20047;-67
2022/08/16 05:56:44;;;;;;;26.77;23.95;;;20.30;99.90;;;;;;5112750;27;20648;-66
2022/08/16 05:59:11;;;;;;;29.15;25.17;;;20.40;99.90;;;;;;5095945;27;20529;-67
2022/08/16 06:01:38;;;;;;;27.10;24.25;;;20.60;99.90;;;;;;5090660;28;20142;-68
2022/08/16 06:04:04;;;;;;;26.48;23.88;;;20.90;99.90;;;;;;5090378;28;20063;-68
2022/08/16 06:06:30;;;;;;;26.17;22.88;;;21.10;99.90;;;;;;5058725;28;20536;-68
2022/08/16 06:08:56;;;;;;;27.20;24.38;;;21.40;99.90;;;;;;5090251;28;20138;-67
2022/08/16 06:11:22;;;;;;;28.08;23.58;;;21.40;99.90;;;;;;5073032;28;20043;-68
2022/08/16 06:13:48;;;;;;;25.17;22.52;;;21.40;99.90;;;;;;5088028;28;20127;-68
2022/08/16 06:16:14;;;;;;;25.58;23.10;;;21.50;99.90;;;;;;5090523;28;20039;-68
2022/08/16 06:18:39;;;;;;;25.17;22.27;;;21.60;99.90;;;;;;5057588;28;20565;-68
2022/08/16 06:21:05;;;;;;;25.75;22.83;;;21.80;99.90;;;;;;5089901;28;20533;-68
2022/08/16 06:23:31;;;;;;;24.55;22.02;;;22.00;99.90;;;;;;5089651;28;20631;-68
2022/08/16 06:25:56;;;;;;;23.55;20.90;;;22.10;99.90;;;;;;5056687;28;20517;-68
2022/08/16 06:28:22;;;;;;;23.52;21.38;;;22.30;99.90;;;;;;5107226;27;20050;-68
2022/08/16 06:30:48;;;;;;;23.02;20.73;;;22.40;99.90;;;;;;5089680;28;20122;-68
2022/08/16 06:33:15;;;;;;;22.55;20.15;;;22.70;99.90;;;;;;5090333;28;20035;-68
2022/08/16 06:35:41;;;;;;;22.10;19.75;;;22.70;99.90;;;;;;5072559;28;20044;-68
2022/08/16 06:38:06;;;;;;;22.95;20.60;;;22.70;99.90;;;;;;5073340;28;20074;-68
2022/08/16 06:40:32;;;;;;;21.33;19.23;;;22.80;99.90;;;;;;5089255;28;20164;-68
2022/08/16 06:42:58;;;;;;;21.42;19.33;;;22.80;99.90;;;;;;5089829;28;20039;-68
2022/08/16 06:45:24;;;;;;;21.30;19.33;;;22.90;99.90;;;;;;5090990;28;20127;-69
2022/08/16 06:47:50;;;;;;;20.88;18.67;;;23.10;99.90;;;;;;5090893;28;20396;-68
2022/08/16 06:50:17;;;;;;;20.40;18.27;;;23.30;99.90;;;;;;5094137;28;20043;-68
2022/08/16 06:52:44;;;;;;;19.77;17.77;;;23.50;99.90;;;;;;5076662;28;20075;-68
2022/08/16 06:55:12;;;;;;;19.30;17.50;;;23.50;99.90;;;;;;5060694;28;20043;-67
2022/08/16 06:57:38;;;;;;;18.90;16.75;;;23.70;99.90;;;;;;5091778;28;20110;-67
2022/08/16 07:00:13;;;;;;;18.27;16.58;;;23.90;99.90;;;;;;5076197;28;20334;-68
2022/08/16 07:02:40;;;;;;;17.35;15.10;;;24.00;99.90;;;;;;5104571;27;20313;-68
2022/08/16 07:05:08;;;;;;;17.83;15.18;;;24.10;99.90;;;;;;5112778;27;20745;-68
2022/08/16 07:07:35;;;;;;;16.23;14.63;;;24.10;99.90;;;;;;5095348;27;20100;-66
2022/08/16 07:10:00;;;;;;;16.50;15.00;;;24.10;99.90;;;;;;5112482;27;20146;-66
2022/08/16 07:12:26;;;;;;;18.33;14.35;;;23.80;99.90;;;;;;5113715;27;20388;-67
2022/08/16 07:14:52;;;;;;;16.52;14.98;;;23.50;99.90;;;;;;5113201;27;20076;-67
2022/08/16 07:17:20;;;;;;;15.45;14.05;;;23.60;99.90;;;;;;5113454;27;20054;-68
2022/08/16 07:19:45;;;;;;;16.33;14.75;;;24.00;99.90;;;;;;5095754;27;20068;-68
2022/08/16 07:22:11;;;;;;;14.82;13.40;;;24.00;99.90;;;;;;5095686;27;20039;-68
2022/08/16 07:24:37;;;;;;;14.35;12.73;;;24.30;99.90;;;;;;5113040;27;20552;-68
2022/08/16 07:27:03;;;;;;;13.50;12.30;;;24.50;99.90;;;;;;5095806;27;20142;-68
2022/08/16 07:29:29;;;;;;;13.63;12.43;;;24.60;99.90;;;;;;5114700;27;20552;-68
2022/08/16 07:31:55;;;;;;;12.55;11.55;;;24.80;99.90;;;;;;5114411;27;20270;-68
2022/08/16 07:34:21;;;;;;;13.02;11.75;;;24.80;99.90;;;;;;5095083;27;20046;-68
2022/08/16 07:36:47;;;;;;;12.77;11.48;;;25.10;99.90;;;;;;5096536;27;20035;-68
2022/08/16 07:39:13;;;;;;;12.88;11.68;;;25.30;99.90;;;;;;5096506;27;20039;-69
2022/08/16 07:41:40;;;;;;;13.30;12.10;;;25.40;99.90;;;;;;5113260;27;20039;-69
2022/08/16 07:44:05;;;;;;;13.07;11.88;;;25.40;99.90;;;;;;5096748;27;20043;-68
2022/08/16 07:46:31;;;;;;;13.60;12.30;;;25.40;99.90;;;;;;5094526;27;20398;-68
2022/08/16 07:48:57;;;;;;;13.23;11.77;;;25.40;99.90;;;;;;5112855;27;20096;-68
2022/08/16 07:51:23;;;;;;;13.52;12.20;;;25.30;99.90;;;;;;5084359;27;20625;-68
2022/08/16 07:53:50;;;;;;;12.50;11.38;;;25.50;99.90;;;;;;5094209;27;20219;-68
2022/08/16 07:56:17;;;;;;;12.93;11.73;;;25.70;99.90;;;;;;5112371;27;20078;-68
2022/08/16 07:58:44;;;;;;;14.18;12.68;;;25.80;99.90;;;;;;5095381;27;20050;-67
2022/08/16 08:01:11;;;;;;;13.50;12.20;;;26.00;99.90;;;;;;5113452;27;20062;-69
2022/08/16 08:03:38;;;;;;;14.23;12.73;;;25.80;99.90;;;;;;5115919;27;20799;-68
2022/08/16 08:06:04;;;;;;;13.65;11.70;;;25.90;99.90;;;;;;5099566;27;20530;-68
2022/08/16 08:08:30;;;;;;;13.43;12.07;;;26.10;99.90;;;;;;5115539;27;20273;-68
2022/08/16 08:10:55;;;;;;;14.75;13.25;;;26.20;99.90;;;;;;5064781;27;20062;-68
2022/08/16 08:13:21;;;;;;;13.10;11.75;;;26.30;99.90;;;;;;5082594;27;20327;-68
2022/08/16 08:15:48;;;;;;;16.15;11.38;;;26.40;99.90;;;;;;5098399;27;20038;-69
2022/08/16 08:18:14;;;;;;;10.63;9.65;;;26.70;99.90;;;;;;5097994;27;20096;-68
2022/08/16 08:20:44;;;;;;;12.45;11.23;;;27.10;99.90;;;;;;5115666;27;20387;-69
2022/08/16 08:23:12;;;;;;;8.93;7.75;;;27.20;99.90;;;;;;5120136;27;20035;-69
2022/08/16 08:25:39;;;;;;;8.48;7.10;;;27.30;99.90;;;;;;5120195;27;20480;-68
2022/08/16 08:28:05;;;;;;;10.27;7.20;;;26.90;99.90;;;;;;5100944;27;20038;-69
2022/08/16 08:30:32;;;;;;;6.75;5.93;;;27.00;99.90;;;;;;5116569;27;20046;-68
2022/08/16 08:32:58;;;;;;;7.18;6.45;;;27.00;99.90;;;;;;5098520;27;20276;-69
2022/08/16 08:35:24;;;;;;;6.82;6.13;;;27.20;99.90;;;;;;5114895;27;20061;-68
2022/08/16 08:37:50;;;;;;;9.75;6.20;;;27.30;99.90;;;;;;5116753;27;20042;-69
2022/08/16 08:40:16;;;;;;;7.20;5.45;;;27.10;99.90;;;;;;5099826;27;20043;-68
2022/08/16 08:42:42;;;;;;;6.03;5.38;;;27.20;99.90;;;;;;5101188;27;20449;-69
2022/08/16 08:45:10;;;;;;;7.43;6.22;;;27.40;99.90;;;;;;5100239;27;20373;-68
2022/08/16 08:47:36;;;;;;;8.50;5.55;;;27.70;99.90;;;;;;5099936;27;20137;-69
2022/08/16 08:50:04;;;;;;;7.70;5.40;;;27.70;99.90;;;;;;5082915;27;20050;-69
2022/08/16 08:52:30;;;;;;;9.82;5.60;;;27.60;99.90;;;;;;5099823;27;20479;-68
2022/08/16 08:54:55;;;;;;;9.82;7.22;;;27.80;99.90;;;;;;5117455;27;20581;-69
2022/08/16 08:57:21;;;;;;;5.22;4.68;;;27.60;99.90;;;;;;5117732;27;20073;-69
2022/08/16 08:59:47;;;;;;;6.53;4.40;;;27.80;99.90;;;;;;5099446;27;20073;-69
2022/08/16 09:02:15;;;;;;;8.93;4.45;;;27.90;99.90;;;;;;5116298;27;20269;-69
2022/08/16 09:04:42;;;;;;;5.68;5.18;;;28.20;99.90;;;;;;5116085;27;20098;-68
2022/08/16 09:07:09;;;;;;;5.65;4.82;;;28.30;99.90;;;;;;5100187;27;20334;-69
2022/08/16 09:09:34;;;;;;;8.20;4.43;;;28.30;99.90;;;;;;5116735;27;20049;-69
2022/08/16 09:12:01;;;;;;;8.48;3.33;;;28.40;99.90;;;;;;5116754;27;20043;-69
2022/08/16 09:14:27;;;;;;;6.13;3.58;;;28.60;99.90;;;;;;5116735;27;20087;-69
2022/08/16 09:16:53;;;;;;;5.05;3.65;;;28.50;99.90;;;;;;5100172;27;20647;-69
2022/08/16 09:19:21;;;;;;;6.32;3.30;;;28.50;99.90;;;;;;5083142;27;20257;-69
2022/08/16 09:21:50;;;;;;;6.47;3.42;;;28.60;99.90;;;;;;5083477;27;20279;-69
2022/08/16 09:24:17;;;;;;;6.65;2.97;;;28.90;98.50;;;;;;5118071;27;20477;-69
2022/08/16 09:26:43;;;;;;;6.50;2.88;;;29.00;97.50;;;;;;5100142;27;20480;-69
2022/08/16 09:29:08;;;;;;;5.63;3.20;;;29.10;97.50;;;;;;5115497;27;20158;-69
2022/08/16 09:31:34;;;;;;;5.88;3.03;;;29.00;95.80;;;;;;5115113;27;20043;-69
2022/08/16 09:34:02;;;;;;;3.45;3.00;;;29.20;96.30;;;;;;5097834;27;20039;-69
2022/08/16 09:36:28;;;;;;;2.92;2.60;;;29.50;95.40;;;;;;5115102;27;20133;-69
2022/08/16 09:38:55;;;;;;;5.18;2.72;;;29.60;95.40;;;;;;5098622;27;20042;-70
2022/08/16 09:41:21;;;;;;;4.70;2.40;;;29.60;95.00;;;;;;5115026;27;20503;-69
2022/08/16 09:43:46;;;;;;;4.85;2.42;;;29.90;93.40;;;;;;5097781;27;20168;-68
2022/08/16 09:46:12;;;;;;;3.22;1.83;;;29.80;91.80;;;;;;5081644;27;20369;-69
2022/08/16 09:48:40;;;;;;;6.22;1.85;;;29.80;85.80;;;;;;5097798;27;20532;-67
2022/08/16 09:51:11;;;;;;;4.68;1.90;;;29.80;83.80;;;;;;5098507;27;20261;-68
2022/08/16 09:53:37;;;;;;;2.08;1.80;;;30.20;82.70;;;;;;5114680;27;20042;-68
2022/08/16 09:56:09;;;;;;;4.15;1.88;;;30.10;82.40;;;;;;5115051;27;20417;-67
2022/08/16 09:58:35;;;;;;;2.58;2.05;;;30.10;80.70;;;;;;5114902;27;20046;-67
2022/08/16 10:01:00;;;;;;;3.47;2.15;;;30.20;79.10;;;;;;5114380;27;20231;-68
2022/08/16 10:03:26;;;;;;;4.10;2.10;;;30.10;79.90;;;;;;5097536;27;20332;-68
2022/08/16 10:05:52;;;;;;;5.15;2.20;;;30.00;81.90;;;;;;5114676;27;20503;-68
2022/08/16 10:08:17;;;;;;;4.43;2.45;;;29.80;83.80;;;;;;5097883;27;20408;-68
2022/08/16 10:13:10;;;;;;;2.90;2.20;;;30.10;82.40;;;;;;5063472;27;20533;-69
2022/08/16 10:13:32;;;;;;;5.00;2.75;;;30.20;82.10;;;;;;5114450;27;20049;-67
2022/08/16 10:15:59;;;;;;;4.50;2.10;;;30.40;74.70;;;;;;5080946;27;20038;-67
2022/08/16 10:18:27;;;;;;;3.95;2.10;;;30.50;76.40;;;;;;5114372;27;20038;-67
2022/08/16 10:20:54;;;;;;;3.67;2.00;;;30.50;73.70;;;;;;5113932;27;20058;-67
2022/08/16 10:23:20;;;;;;;5.72;2.28;;;30.50;75.60;;;;;;5097494;27;20145;-68
2022/08/16 10:25:47;;;;;;;3.25;2.25;;;30.60;73.30;;;;;;5114237;27;20107;-68
2022/08/16 10:28:13;;;;;;;3.65;2.00;;;30.70;73.60;;;;;;5114109;27;20543;-68
2022/08/16 10:30:43;;;;;;;3.70;2.20;;;31.10;73.40;;;;;;5080283;27;20061;-69
2022/08/16 10:33:10;;;;;;;6.38;2.35;;;31.10;73.00;;;;;;5113925;27;20049;-69
2022/08/16 10:35:37;;;;;;;3.67;1.80;;;31.10;67.40;;;;;;5114086;27;20158;-69
2022/08/16 10:38:03;;;;;;;4.65;1.65;;;31.00;66.50;;;;;;5096947;27;20047;-68
2022/08/16 10:40:28;;;;;;;5.85;1.55;;;31.30;61.70;;;;;;5113585;27;20049;-68
2022/08/16 10:42:54;;;;;;;2.63;1.70;;;31.20;62.80;;;;;;5114491;27;20053;-68
2022/08/16 10:45:20;;;;;;;4.30;1.75;;;31.20;62.10;;;;;;5096571;27;20053;-68
2022/08/16 10:47:48;;;;;;;4.15;2.10;;;31.20;61.80;;;;;;5114083;27;20039;-69
2022/08/16 10:50:14;;;;;;;2.92;1.80;;;31.00;62.10;;;;;;5113746;27;20346;-69
2022/08/16 10:52:39;;;;;;;2.90;1.60;;;31.10;63.50;;;;;;5113418;27;20050;-68
2022/08/16 10:55:11;;;;;;;4.93;1.73;;;31.40;61.90;;;;;;5114245;27;20134;-67
2022/08/16 10:57:37;;;;;;;2.70;1.30;;;31.50;58.80;;;;;;5098134;27;20050;-68
2022/08/16 11:00:09;;;;;;;3.08;1.80;;;31.30;57.00;;;;;;5113772;27;20114;-67
2022/08/16 11:02:36;;;;;;;;;;;31.30;57.70;;;;;;5113725;27;20581;-67
2022/08/16 11:05:02;;;;;;;5.68;2.15;;;31.30;57.80;;;;;;5113613;27;20431;-68
2022/08/16 11:07:28;;;;;;;5.20;2.45;;;31.30;55.70;;;;;;5113338;27;20342;-69
2022/08/16 11:09:54;;;;;;;3.47;2.10;;;31.50;57.50;;;;;;5097088;27;20306;-69
2022/08/16 11:12:19;;;;;;;5.82;2.38;;;31.70;56.90;;;;;;5114291;27;20043;-69
2022/08/16 11:14:45;;;;;;;4.78;1.88;;;31.90;56.20;;;;;;5132117;27;20070;-68
2022/08/16 11:17:12;;;;;;;4.00;1.48;;;31.80;56.60;;;;;;5079888;27;20034;-69
2022/08/16 11:19:40;;;;;;;4.50;1.80;;;31.90;56.80;;;;;;5096560;27;20410;-69
2022/08/16 11:22:06;;;;;;;6.85;2.00;;;31.80;54.80;;;;;;5113770;27;20043;-68
2022/08/16 11:24:32;;;;;;;3.47;2.08;;;32.00;53.40;;;;;;5080156;27;20524;-68
2022/08/16 11:26:59;;;;;;;4.28;2.08;;;32.00;52.00;;;;;;5114335;27;20043;-69
2022/08/16 11:29:24;;;;;;;4.20;1.90;;;31.70;53.00;;;;;;5096773;27;20039;-70
2022/08/16 11:31:50;;;;;;;3.03;1.98;;;32.00;53.80;;;;;;5096745;27;20228;-69
2022/08/16 11:34:16;;;;;;;5.75;2.40;;;32.30;53.70;;;;;;5113888;27;20371;-68
2022/08/16 11:36:42;;;;;;;6.47;2.75;;;32.50;51.50;;;;;;5116539;27;20593;-69
2022/08/16 11:39:08;;;;;;;3.55;2.40;;;32.80;50.30;;;;;;5118035;27;20043;-70
2022/08/16 11:41:37;;;;;;;4.13;2.22;;;32.90;50.10;;;;;;5117583;27;20049;-70
2022/08/16 11:44:04;;;;;;;4.53;2.20;;;32.80;50.50;;;;;;5117194;27;20046;-70
2022/08/16 11:46:32;;;;;;;3.20;1.95;;;33.00;49.10;;;;;;5117447;27;20088;-68
2022/08/16 11:48:58;;;;;;;6.60;2.40;;;32.90;49.70;;;;;;5116863;27;20042;-69
2022/08/16 11:51:23;;;;;;;3.67;2.63;;;32.90;48.20;;;;;;5099917;27;20073;-68
2022/08/16 11:53:49;;;;;;;8.52;2.97;;;32.60;49.10;;;;;;5117462;27;20658;-70
2022/08/16 11:56:15;;;;;;;5.20;2.25;;;32.40;49.80;;;;;;5117477;27;20282;-69
2022/08/16 11:58:41;;;;;;;6.43;2.80;;;32.60;51.40;;;;;;5116835;27;20046;-70
2022/08/16 12:01:06;;;;;;;4.57;2.22;;;32.50;51.50;;;;;;5117119;27;20126;-68
2022/08/16 12:03:33;;;;;;;4.20;2.83;;;32.90;51.40;;;;;;5116563;27;20157;-69
2022/08/16 12:06:07;;;;;;;4.20;2.90;;;32.80;50.50;;;;;;5116818;27;20282;-69
2022/08/16 12:08:32;;;;;;;5.35;2.97;;;32.80;50.80;;;;;;5117608;27;20860;-69
2022/08/16 12:10:59;;;;;;;5.70;2.78;;;32.60;50.70;;;;;;5099343;27;20097;-70
2022/08/16 12:13:26;;;;;;;3.97;2.20;;;32.40;51.10;;;;;;5116986;27;20061;-69
2022/08/16 12:15:51;;;;;;;4.97;2.50;;;32.50;52.90;;;;;;5116563;27;20042;-70
2022/08/16 12:18:17;;;;;;;4.90;2.28;;;32.80;51.70;;;;;;5117186;27;20370;-69
2022/08/16 12:20:43;;;;;;;7.05;2.70;;;33.00;51.70;;;;;;5116760;27;20512;-70
2022/08/16 12:23:10;;;;;;;3.83;2.70;;;33.00;51.40;;;;;;5117302;27;20682;-70
2022/08/16 12:25:37;;;;;;;6.15;2.40;;;33.20;50.00;;;;;;5116248;27;20289;-70
2022/08/16 12:28:05;;;;;;;5.28;2.70;;;32.80;51.20;;;;;;5100432;27;20058;-70
2022/08/16 12:30:35;;;;;;;5.13;2.92;;;32.30;51.70;;;;;;5123483;27;20191;-69
2022/08/16 12:33:02;;;;;;;3.58;2.40;;;31.90;51.20;;;;;;5102447;27;20057;-71
2022/08/16 12:35:30;;;;;;;3.78;2.35;;;32.00;52.90;;;;;;5103089;27;20269;-69